Temp: 14.6°C   Baro: 1023.0mb
  Wind: 2.0mph   Dir: ENE (68°)
  Rain: 0.0mm (0.0mm/hr)
  Sun: 0W/m2  Humidity: 74%

Historic data

Bath Spa Weather Station Historical Data
Daily Summary for June 07, 2023 Units:  Both    English   Metric
Daily Weekly Monthly Yearly Custom
  High: Low: Average:
Temperature: 73.8 °F /  23.2 °C 48.2 °F /  9 °C 60 °F /  15.6 °C
Dew Point: 59.1 °F /  15.1 °C 43 °F /  6.1 °C 50.7 °F /  10.4 °C
Humidity: 83% 58.6% 72%
Wind Speed: 8mph /  12.9km/h - 4.3mph /  6.9km/h
Wind Gust: 18mph /  29km/h - -
Wind- - ENE
Pressure: 30.23 in /  1023.6 hPa 30.10 in /  1019.2 hPa -
Precipitation: 0.00 in /  0 mm    
Historical Graphs
 
 
Tabular Data for June 07, 2023
Time Temperature Dew Point Pressure Wind Wind Speed Wind Gust Humidity Rainfall Rate (Hourly) solar
00:09 52.5 °F /  11.4 °C 45.9 °F /  7.7 °C 30.23in /  1023.6hPa ENE 2.4mph /  3.9km/h 8mph /  12.9km/h 78% 0.00in /  0mm 0 W/m2
00:14 52.5 °F /  11.4 °C 45.9 °F /  7.7 °C 30.23in /  1023.6hPa ENE 2.5mph /  4km/h 6mph /  9.7km/h 78% 0.00in /  0mm 0 W/m2
00:19 52.5 °F /  11.4 °C 45.9 °F /  7.7 °C 30.23in /  1023.6hPa ENE 4.4mph /  7.1km/h 8mph /  12.9km/h 78% 0.00in /  0mm 0 W/m2
00:24 52.3 °F /  11.3 °C 45.7 °F /  7.6 °C 30.23in /  1023.6hPa ENE 3.6mph /  5.8km/h 10mph /  16.1km/h 78% 0.00in /  0mm 0 W/m2
00:29 52.3 °F /  11.3 °C 45.6 °F /  7.6 °C 30.23in /  1023.6hPa NE 2mph /  3.2km/h 7mph /  11.3km/h 78% 0.00in /  0mm 0 W/m2
00:34 52.2 °F /  11.2 °C 45.5 °F /  7.5 °C 30.23in /  1023.6hPa NNE 3.3mph /  5.3km/h 7mph /  11.3km/h 78% 0.00in /  0mm 0 W/m2
00:39 52 °F /  11.1 °C 45.3 °F /  7.4 °C 30.23in /  1023.6hPa NE 3.6mph /  5.8km/h 7mph /  11.3km/h 78% 0.00in /  0mm 0 W/m2
00:44 51.9 °F /  11.1 °C 45.2 °F /  7.3 °C 30.23in /  1023.6hPa NE 2.5mph /  4km/h 9mph /  14.5km/h 78% 0.00in /  0mm 0 W/m2
00:49 51.6 °F /  10.9 °C 45 °F /  7.2 °C 30.23in /  1023.6hPa ENE 2.9mph /  4.7km/h 8mph /  12.9km/h 78% 0.00in /  0mm 0 W/m2
00:54 51.6 °F /  10.9 °C 45.1 °F /  7.3 °C 30.22in /  1023.2hPa East 1.9mph /  3.1km/h 4mph /  6.4km/h 78.4% 0.00in /  0mm 0 W/m2
00:59 51.4 °F /  10.8 °C 44.9 °F /  7.2 °C 30.22in /  1023.2hPa NE 2.9mph /  4.7km/h 7mph /  11.3km/h 78.4% 0.00in /  0mm 0 W/m2
01:04 51.3 °F /  10.7 °C 44.6 °F /  7 °C 30.22in /  1023.2hPa NE 1.8mph /  2.9km/h 5mph /  8km/h 78% 0.00in /  0mm 0 W/m2
01:09 51.3 °F /  10.7 °C 44.7 °F /  7.1 °C 30.22in /  1023.2hPa NE 1.4mph /  2.3km/h 5mph /  8km/h 78.2% 0.00in /  0mm 0 W/m2
01:14 51.1 °F /  10.6 °C 44.8 °F /  7.1 °C 30.22in /  1023.2hPa NNE 1.7mph /  2.7km/h 7mph /  11.3km/h 78.8% 0.00in /  0mm 0 W/m2
01:19 51 °F /  10.6 °C 44.7 °F /  7.1 °C 30.22in /  1023.2hPa NE 2mph /  3.2km/h 7mph /  11.3km/h 79% 0.00in /  0mm 0 W/m2
01:24 50.8 °F /  10.4 °C 44.5 °F /  6.9 °C 30.22in /  1023.2hPa NE 1.6mph /  2.6km/h 9mph /  14.5km/h 79% 0.00in /  0mm 0 W/m2
01:29 50.7 °F /  10.4 °C 44.4 °F /  6.9 °C 30.22in /  1023.2hPa ENE 3.6mph /  5.8km/h 6mph /  9.7km/h 79% 0.00in /  0mm 0 W/m2
01:34 50.5 °F /  10.3 °C 44.2 °F /  6.8 °C 30.22in /  1023.2hPa East 2.2mph /  3.5km/h 9mph /  14.5km/h 79% 0.00in /  0mm 0 W/m2
01:39 50.5 °F /  10.3 °C 44.2 °F /  6.8 °C 30.22in /  1023.2hPa East 2.7mph /  4.3km/h 9mph /  14.5km/h 79% 0.00in /  0mm 0 W/m2
01:44 50.4 °F /  10.2 °C 44.1 °F /  6.7 °C 30.22in /  1023.2hPa NE 2.4mph /  3.9km/h 5mph /  8km/h 79% 0.00in /  0mm 0 W/m2
01:49 50.4 °F /  10.2 °C 44.1 °F /  6.7 °C 30.22in /  1023.2hPa ENE 1.5mph /  2.4km/h 6mph /  9.7km/h 79% 0.00in /  0mm 0 W/m2
01:54 50.4 °F /  10.2 °C 44.1 °F /  6.7 °C 30.22in /  1023.2hPa NE 3.6mph /  5.8km/h 12mph /  19.3km/h 79% 0.00in /  0mm 0 W/m2
01:59 50.4 °F /  10.2 °C 44.1 °F /  6.7 °C 30.22in /  1023.2hPa East 2.9mph /  4.7km/h 10mph /  16.1km/h 79% 0.00in /  0mm 0 W/m2
02:04 50.2 °F /  10.1 °C 43.9 °F /  6.6 °C 30.22in /  1023.2hPa East 1.4mph /  2.3km/h 5mph /  8km/h 79% 0.00in /  0mm 0 W/m2
02:09 50.2 °F /  10.1 °C 43.9 °F /  6.6 °C 30.22in /  1023.2hPa East 1.5mph /  2.4km/h 5mph /  8km/h 79% 0.00in /  0mm 0 W/m2
02:14 50.1 °F /  10.1 °C 43.8 °F /  6.6 °C 30.22in /  1023.2hPa ENE 2mph /  3.2km/h 7mph /  11.3km/h 79% 0.00in /  0mm 0 W/m2
02:19 49.8 °F /  9.9 °C 43.5 °F /  6.4 °C 30.22in /  1023.2hPa ENE 3.7mph /  6km/h 5mph /  8km/h 79% 0.00in /  0mm 0 W/m2
02:24 49.7 °F /  9.8 °C 43.4 °F /  6.3 °C 30.22in /  1023.2hPa ESE 0.9mph /  1.4km/h 5mph /  8km/h 79% 0.00in /  0mm 0 W/m2
02:29 49.6 °F /  9.8 °C 43.3 °F /  6.3 °C 30.22in /  1023.2hPa ESE 1.7mph /  2.7km/h 4mph /  6.4km/h 79% 0.00in /  0mm 0 W/m2
02:34 49.6 °F /  9.8 °C 43.3 °F /  6.3 °C 30.22in /  1023.2hPa East 1.5mph /  2.4km/h 5mph /  8km/h 79% 0.00in /  0mm 0 W/m2
02:39 49.5 °F /  9.7 °C 43.2 °F /  6.2 °C 30.22in /  1023.2hPa ESE 1.2mph /  1.9km/h 4mph /  6.4km/h 79% 0.00in /  0mm 0 W/m2
02:44 49.5 °F /  9.7 °C 43.3 °F /  6.3 °C 30.22in /  1023.2hPa ESE 1.2mph /  1.9km/h 4mph /  6.4km/h 79.4% 0.00in /  0mm 0 W/m2
02:49 49.4 °F /  9.7 °C 43.4 °F /  6.3 °C 30.22in /  1023.2hPa ESE 0.6mph /  1km/h 3mph /  4.8km/h 80% 0.00in /  0mm 0 W/m2
02:54 49.3 °F /  9.6 °C 43.3 °F /  6.3 °C 30.21in /  1022.9hPa ESE 0.8mph /  1.3km/h 4mph /  6.4km/h 80% 0.00in /  0mm 0 W/m2
02:59 49.3 °F /  9.6 °C 43.3 °F /  6.3 °C 30.22in /  1023.2hPa ENE 2mph /  3.2km/h 7mph /  11.3km/h 80% 0.00in /  0mm 0 W/m2
03:04 49.1 °F /  9.5 °C 43.2 °F /  6.2 °C 30.21in /  1022.9hPa East 1.7mph /  2.7km/h 5mph /  8km/h 80% 0.00in /  0mm 0 W/m2
03:09 48.9 °F /  9.4 °C 43 °F /  6.1 °C 30.21in /  1022.9hPa NE 1.6mph /  2.6km/h 5mph /  8km/h 80% 0.00in /  0mm 0 W/m2
03:14 48.8 °F /  9.3 °C 43 °F /  6.1 °C 30.21in /  1022.9hPa East 2.5mph /  4km/h 9mph /  14.5km/h 80.2% 0.00in /  0mm 0 W/m2
03:19 48.7 °F /  9.3 °C 43.1 °F /  6.2 °C 30.21in /  1022.9hPa ESE 2.1mph /  3.4km/h 9mph /  14.5km/h 80.8% 0.00in /  0mm 0 W/m2
03:24 48.7 °F /  9.3 °C 43.2 °F /  6.2 °C 30.21in /  1022.9hPa East 1.7mph /  2.7km/h 5mph /  8km/h 81% 0.00in /  0mm 0 W/m2
03:29 48.6 °F /  9.2 °C 43 °F /  6.1 °C 30.21in /  1022.9hPa East 1.3mph /  2.1km/h 4mph /  6.4km/h 81% 0.00in /  0mm 0 W/m2
03:33 48.6 °F /  9.2 °C 43 °F /  6.1 °C 30.21in /  1022.9hPa ESE 1.4mph /  2.3km/h 4mph /  6.4km/h 81% 0.00in /  0mm 0 W/m2
03:39 48.6 °F /  9.2 °C 43 °F /  6.1 °C 30.21in /  1022.9hPa ESE 3.1mph /  5km/h 8mph /  12.9km/h 81.2% 0.00in /  0mm 0 W/m2
03:44 48.4 °F /  9.1 °C 43.2 °F /  6.2 °C 30.21in /  1022.9hPa ESE 0.9mph /  1.4km/h 5mph /  8km/h 82% 0.00in /  0mm 0 W/m2
03:49 48.4 °F /  9.1 °C 43.1 °F /  6.2 °C 30.21in /  1022.9hPa ESE 1.6mph /  2.6km/h 4mph /  6.4km/h 81.8% 0.00in /  0mm 0 W/m2
03:54 48.4 °F /  9.1 °C 43.2 °F /  6.2 °C 30.21in /  1022.9hPa ESE 0.8mph /  1.3km/h 3mph /  4.8km/h 82% 0.00in /  0mm 0 W/m2
03:59 48.3 °F /  9.1 °C 43.1 °F /  6.2 °C 30.21in /  1022.9hPa ESE 1.8mph /  2.9km/h 5mph /  8km/h 82% 0.00in /  0mm 0 W/m2
04:04 48.2 °F /  9 °C 43 °F /  6.1 °C 30.21in /  1022.9hPa ESE 0.8mph /  1.3km/h 5mph /  8km/h 82% 0.00in /  0mm 0 W/m2
04:09 48.2 °F /  9 °C 43.1 °F /  6.2 °C 30.21in /  1022.9hPa East 1.6mph /  2.6km/h 7mph /  11.3km/h 82.2% 0.00in /  0mm 0 W/m2
04:14 48.2 °F /  9 °C 43.3 °F /  6.3 °C 30.21in /  1022.9hPa East 0.2mph /  0.3km/h 2mph /  3.2km/h 83% 0.00in /  0mm 0 W/m2
04:19 48.2 °F /  9 °C 43.3 °F /  6.3 °C 30.21in /  1022.9hPa ESE 0.4mph /  0.6km/h 3mph /  4.8km/h 83% 0.00in /  0mm 0 W/m2
04:24 48.4 °F /  9.1 °C 43.5 °F /  6.4 °C 30.21in /  1022.9hPa North 2mph /  3.2km/h 5mph /  8km/h 83% 0.00in /  0mm 0 W/m2
04:29 48.6 °F /  9.2 °C 43.7 °F /  6.5 °C 30.21in /  1022.9hPa East 1.9mph /  3.1km/h 6mph /  9.7km/h 83% 0.00in /  0mm 0 W/m2
04:34 48.7 °F /  9.3 °C 43.8 °F /  6.6 °C 30.20in /  1022.6hPa NE 4.2mph /  6.8km/h 10mph /  16.1km/h 83% 0.00in /  0mm 0 W/m2
04:39 48.7 °F /  9.3 °C 43.9 °F /  6.6 °C 30.20in /  1022.6hPa NE 4.2mph /  6.8km/h 10mph /  16.1km/h 83% 0.00in /  0mm 0 W/m2
04:44 48.7 °F /  9.3 °C 43.9 °F /  6.6 °C 30.20in /  1022.6hPa ENE 4.5mph /  7.2km/h 12mph /  19.3km/h 83% 0.00in /  0mm 0 W/m2
04:49 48.7 °F /  9.3 °C 43.8 °F /  6.6 °C 30.20in /  1022.6hPa ENE 2.3mph /  3.7km/h 8mph /  12.9km/h 82.6% 0.00in /  0mm 0 W/m2
04:54 48.7 °F /  9.3 °C 43.5 °F /  6.4 °C 30.20in /  1022.6hPa East 3.7mph /  6km/h 9mph /  14.5km/h 82% 0.00in /  0mm 0 W/m2
04:59 48.7 °F /  9.3 °C 43.5 °F /  6.4 °C 30.20in /  1022.6hPa ENE 3.2mph /  5.1km/h 11mph /  17.7km/h 82% 0.00in /  0mm 5 W/m2
05:04 48.7 °F /  9.3 °C 43.5 °F /  6.4 °C 30.20in /  1022.6hPa NE 2.5mph /  4km/h 9mph /  14.5km/h 82% 0.00in /  0mm 7 W/m2
05:09 48.7 °F /  9.3 °C 43.5 °F /  6.4 °C 30.20in /  1022.6hPa East 4.1mph /  6.6km/h 11mph /  17.7km/h 82% 0.00in /  0mm 9 W/m2
05:14 48.7 °F /  9.3 °C 43.3 °F /  6.3 °C 30.20in /  1022.6hPa ENE 4.4mph /  7.1km/h 13mph /  20.9km/h 81.2% 0.00in /  0mm 11 W/m2
05:19 48.7 °F /  9.3 °C 43.2 °F /  6.2 °C 30.20in /  1022.6hPa East 2mph /  3.2km/h 13mph /  20.9km/h 81% 0.00in /  0mm 14 W/m2
05:24 48.7 °F /  9.3 °C 43.2 °F /  6.2 °C 30.20in /  1022.6hPa ENE 1.6mph /  2.6km/h 7mph /  11.3km/h 81% 0.00in /  0mm 16 W/m2
05:29 48.7 °F /  9.3 °C 43.2 °F /  6.2 °C 30.20in /  1022.6hPa NE 4.8mph /  7.7km/h 8mph /  12.9km/h 81% 0.00in /  0mm 19 W/m2
05:34 48.7 °F /  9.3 °C 43.2 °F /  6.2 °C 30.20in /  1022.6hPa NE 3.3mph /  5.3km/h 10mph /  16.1km/h 81% 0.00in /  0mm 21 W/m2
05:39 48.7 °F /  9.3 °C 43.2 °F /  6.2 °C 30.20in /  1022.6hPa ENE 4.8mph /  7.7km/h 12mph /  19.3km/h 81% 0.00in /  0mm 23 W/m2
05:44 48.7 °F /  9.3 °C 43.2 °F /  6.2 °C 30.20in /  1022.6hPa East 4.2mph /  6.8km/h 11mph /  17.7km/h 81% 0.00in /  0mm 26 W/m2
05:49 48.7 °F /  9.3 °C 43.2 °F /  6.2 °C 30.20in /  1022.6hPa ENE 4.7mph /  7.6km/h 11mph /  17.7km/h 81% 0.00in /  0mm 30 W/m2
05:54 48.7 °F /  9.3 °C 43.2 °F /  6.2 °C 30.20in /  1022.6hPa East 6mph /  9.7km/h 13mph /  20.9km/h 81% 0.00in /  0mm 30 W/m2
05:59 48.7 °F /  9.3 °C 43.2 °F /  6.2 °C 30.20in /  1022.6hPa East 3mph /  4.8km/h 8mph /  12.9km/h 81% 0.00in /  0mm 35 W/m2
06:04 48.8 °F /  9.3 °C 43.3 °F /  6.3 °C 30.20in /  1022.6hPa ENE 6.4mph /  10.3km/h 14mph /  22.5km/h 81% 0.00in /  0mm 39 W/m2
06:09 48.9 °F /  9.4 °C 43.3 °F /  6.3 °C 30.20in /  1022.6hPa East 3.2mph /  5.1km/h 10mph /  16.1km/h 81% 0.00in /  0mm 42 W/m2
06:14 48.9 °F /  9.4 °C 43.3 °F /  6.3 °C 30.20in /  1022.6hPa ENE 3mph /  4.8km/h 12mph /  19.3km/h 81% 0.00in /  0mm 47 W/m2
06:19 48.9 °F /  9.4 °C 43.3 °F /  6.3 °C 30.20in /  1022.6hPa ENE 5.1mph /  8.2km/h 9mph /  14.5km/h 81% 0.00in /  0mm 51 W/m2
06:24 49.1 °F /  9.5 °C 43.5 °F /  6.4 °C 30.20in /  1022.6hPa ENE 3.7mph /  6km/h 11mph /  17.7km/h 81% 0.00in /  0mm 54 W/m2
06:29 49.2 °F /  9.6 °C 43.6 °F /  6.4 °C 30.20in /  1022.6hPa ENE 4.8mph /  7.7km/h 14mph /  22.5km/h 81% 0.00in /  0mm 67 W/m2
06:34 49.3 °F /  9.6 °C 43.7 °F /  6.5 °C 30.20in /  1022.6hPa East 3.5mph /  5.6km/h 11mph /  17.7km/h 81% 0.00in /  0mm 77 W/m2
06:39 49.3 °F /  9.6 °C 43.7 °F /  6.5 °C 30.20in /  1022.6hPa NE 4.6mph /  7.4km/h 12mph /  19.3km/h 81% 0.00in /  0mm 79 W/m2
06:44 49.5 °F /  9.7 °C 43.9 °F /  6.6 °C 30.20in /  1022.6hPa East 3.8mph /  6.1km/h 10mph /  16.1km/h 81% 0.00in /  0mm 76 W/m2
06:49 49.6 °F /  9.8 °C 44.1 °F /  6.7 °C 30.20in /  1022.6hPa NE 3.1mph /  5km/h 11mph /  17.7km/h 81% 0.00in /  0mm 120 W/m2
06:54 49.6 °F /  9.8 °C 44.1 °F /  6.7 °C 30.20in /  1022.6hPa ESE 1.6mph /  2.6km/h 14mph /  22.5km/h 81% 0.00in /  0mm 149 W/m2
06:59 49.8 °F /  9.9 °C 44.2 °F /  6.8 °C 30.20in /  1022.6hPa East 2.9mph /  4.7km/h 11mph /  17.7km/h 81% 0.00in /  0mm 123 W/m2
07:04 50 °F /  10 °C 44.4 °F /  6.9 °C 30.20in /  1022.6hPa ENE 3.2mph /  5.1km/h 9mph /  14.5km/h 81% 0.00in /  0mm 137 W/m2
07:09 50.2 °F /  10.1 °C 44.6 °F /  7 °C 30.20in /  1022.6hPa NE 4.7mph /  7.6km/h 11mph /  17.7km/h 81% 0.00in /  0mm 142 W/m2
07:14 50.4 °F /  10.2 °C 44.8 °F /  7.1 °C 30.20in /  1022.6hPa ENE 4.7mph /  7.6km/h 11mph /  17.7km/h 81% 0.00in /  0mm 144 W/m2
07:19 50.4 °F /  10.2 °C 44.8 °F /  7.1 °C 30.20in /  1022.6hPa NNE 3.5mph /  5.6km/h 7mph /  11.3km/h 81% 0.00in /  0mm 178 W/m2
07:24 50.5 °F /  10.3 °C 44.9 °F /  7.2 °C 30.20in /  1022.6hPa ENE 5mph /  8km/h 16mph /  25.7km/h 80.8% 0.00in /  0mm 156 W/m2
07:29 50.6 °F /  10.3 °C 44.7 °F /  7.1 °C 30.20in /  1022.6hPa East 6.3mph /  10.1km/h 14mph /  22.5km/h 80% 0.00in /  0mm 160 W/m2
07:34 50.7 °F /  10.4 °C 44.8 °F /  7.1 °C 30.21in /  1022.9hPa ENE 2.2mph /  3.5km/h 14mph /  22.5km/h 80% 0.00in /  0mm 221 W/m2
07:39 51.1 °F /  10.6 °C 45.1 °F /  7.3 °C 30.21in /  1022.9hPa ENE 3.9mph /  6.3km/h 10mph /  16.1km/h 80% 0.00in /  0mm 188 W/m2
07:44 51.3 °F /  10.7 °C 45.3 °F /  7.4 °C 30.21in /  1022.9hPa ENE 4.6mph /  7.4km/h 11mph /  17.7km/h 80% 0.00in /  0mm 163 W/m2
07:49 51.3 °F /  10.7 °C 45.4 °F /  7.4 °C 30.21in /  1022.9hPa NE 3.1mph /  5km/h 10mph /  16.1km/h 80% 0.00in /  0mm 179 W/m2
07:54 51.4 °F /  10.8 °C 45.5 °F /  7.5 °C 30.21in /  1022.9hPa NE 4.9mph /  7.9km/h 11mph /  17.7km/h 79.8% 0.00in /  0mm 172 W/m2
07:59 51.6 °F /  10.9 °C 45.3 °F /  7.4 °C 30.21in /  1022.9hPa NE 6.8mph /  10.9km/h 14mph /  22.5km/h 79% 0.00in /  0mm 186 W/m2
08:04 51.6 °F /  10.9 °C 45.3 °F /  7.4 °C 30.21in /  1022.9hPa ENE 6mph /  9.7km/h 13mph /  20.9km/h 79% 0.00in /  0mm 269 W/m2
08:09 51.7 °F /  10.9 °C 45.4 °F /  7.4 °C 30.21in /  1022.9hPa East 5.5mph /  8.9km/h 13mph /  20.9km/h 79% 0.00in /  0mm 399 W/m2
08:14 52 °F /  11.1 °C 45.7 °F /  7.6 °C 30.21in /  1022.9hPa East 5mph /  8km/h 14mph /  22.5km/h 79% 0.00in /  0mm 311 W/m2
08:19 52.2 °F /  11.2 °C 45.9 °F /  7.7 °C 30.22in /  1023.2hPa ENE 5.1mph /  8.2km/h 10mph /  16.1km/h 79% 0.00in /  0mm 279 W/m2
08:24 52.3 °F /  11.3 °C 46 °F /  7.8 °C 30.22in /  1023.2hPa ENE 5.2mph /  8.4km/h 10mph /  16.1km/h 79% 0.00in /  0mm 246 W/m2
08:29 52.4 °F /  11.3 °C 45.9 °F /  7.7 °C 30.22in /  1023.2hPa NE 2.7mph /  4.3km/h 10mph /  16.1km/h 78.4% 0.00in /  0mm 264 W/m2
08:34 52.5 °F /  11.4 °C 45.9 °F /  7.7 °C 30.22in /  1023.2hPa East 4.4mph /  7.1km/h 11mph /  17.7km/h 78% 0.00in /  0mm 260 W/m2
08:39 52.6 °F /  11.4 °C 46 °F /  7.8 °C 30.22in /  1023.2hPa East 3.8mph /  6.1km/h 10mph /  16.1km/h 78% 0.00in /  0mm 243 W/m2
08:44 52.9 °F /  11.6 °C 46.2 °F /  7.9 °C 30.22in /  1023.2hPa NE 5.8mph /  9.3km/h 11mph /  17.7km/h 78% 0.00in /  0mm 246 W/m2
08:49 53.1 °F /  11.7 °C 46.4 °F /  8 °C 30.22in /  1023.2hPa NE 5.4mph /  8.7km/h 12mph /  19.3km/h 78% 0.00in /  0mm 241 W/m2
08:54 53.1 °F /  11.7 °C 46.4 °F /  8 °C 30.22in /  1023.2hPa ENE 5.1mph /  8.2km/h 12mph /  19.3km/h 77.8% 0.00in /  0mm 234 W/m2
08:59 53.3 °F /  11.8 °C 46.3 °F /  7.9 °C 30.22in /  1023.2hPa ENE 4.8mph /  7.7km/h 10mph /  16.1km/h 77% 0.00in /  0mm 285 W/m2
09:04 53.6 °F /  12 °C 46.6 °F /  8.1 °C 30.22in /  1023.2hPa East 3.8mph /  6.1km/h 10mph /  16.1km/h 77% 0.00in /  0mm 320 W/m2
09:09 53.8 °F /  12.1 °C 46.8 °F /  8.2 °C 30.22in /  1023.2hPa East 3.6mph /  5.8km/h 10mph /  16.1km/h 77% 0.00in /  0mm 327 W/m2
09:14 53.9 °F /  12.2 °C 46.9 °F /  8.3 °C 30.21in /  1022.9hPa East 3.2mph /  5.1km/h 8mph /  12.9km/h 77% 0.00in /  0mm 306 W/m2
09:19 54.2 °F /  12.3 °C 47 °F /  8.3 °C 30.21in /  1022.9hPa NE 6.2mph /  10km/h 11mph /  17.7km/h 76.4% 0.00in /  0mm 338 W/m2
09:24 54.4 °F /  12.4 °C 47 °F /  8.3 °C 30.21in /  1022.9hPa East 5.4mph /  8.7km/h 11mph /  17.7km/h 76% 0.00in /  0mm 390 W/m2
09:29 54.7 °F /  12.6 °C 47.2 °F /  8.4 °C 30.21in /  1022.9hPa SE 2.8mph /  4.5km/h 14mph /  22.5km/h 75.8% 0.00in /  0mm 538 W/m2
09:34 54.7 °F /  12.6 °C 46.9 °F /  8.3 °C 30.21in /  1022.9hPa NE 5.6mph /  9km/h 11mph /  17.7km/h 75% 0.00in /  0mm 443 W/m2
09:39 54.9 °F /  12.7 °C 47.2 °F /  8.4 °C 30.21in /  1022.9hPa NE 5.5mph /  8.9km/h 13mph /  20.9km/h 75% 0.00in /  0mm 478 W/m2
09:44 55.6 °F /  13.1 °C 47.8 °F /  8.8 °C 30.21in /  1022.9hPa NE 3.7mph /  6km/h 11mph /  17.7km/h 75% 0.00in /  0mm 497 W/m2
09:49 55.9 °F /  13.3 °C 48.1 °F /  8.9 °C 30.21in /  1022.9hPa NE 4.1mph /  6.6km/h 12mph /  19.3km/h 74.8% 0.00in /  0mm 436 W/m2
09:54 56.1 °F /  13.4 °C 48 °F /  8.9 °C 30.21in /  1022.9hPa East 4.5mph /  7.2km/h 10mph /  16.1km/h 74% 0.00in /  0mm 605 W/m2
09:59 56.4 °F /  13.6 °C 48.1 °F /  8.9 °C 30.21in /  1022.9hPa ENE 3.8mph /  6.1km/h 12mph /  19.3km/h 73.6% 0.00in /  0mm 605 W/m2
10:04 56.5 °F /  13.6 °C 48 °F /  8.9 °C 30.21in /  1022.9hPa NE 5.9mph /  9.5km/h 12mph /  19.3km/h 73% 0.00in /  0mm 392 W/m2
10:09 56.5 °F /  13.6 °C 48 °F /  8.9 °C 30.21in /  1022.9hPa NNE 4.1mph /  6.6km/h 11mph /  17.7km/h 73% 0.00in /  0mm 364 W/m2
10:14 56.6 °F /  13.7 °C 48 °F /  8.9 °C 30.20in /  1022.6hPa East 3.5mph /  5.6km/h 9mph /  14.5km/h 73% 0.00in /  0mm 394 W/m2
10:19 56.7 °F /  13.7 °C 48 °F /  8.9 °C 30.20in /  1022.6hPa ESE 4.8mph /  7.7km/h 12mph /  19.3km/h 73% 0.00in /  0mm 633 W/m2
10:24 57 °F /  13.9 °C 48.4 °F /  9.1 °C 30.20in /  1022.6hPa ESE 5.8mph /  9.3km/h 15mph /  24.1km/h 73% 0.00in /  0mm 798 W/m2
10:29 57.6 °F /  14.2 °C 48.9 °F /  9.4 °C 30.20in /  1022.6hPa East 3.3mph /  5.3km/h 13mph /  20.9km/h 72.8% 0.00in /  0mm 452 W/m2
10:34 58.3 °F /  14.6 °C 49.4 °F /  9.7 °C 30.20in /  1022.6hPa ESE 2.8mph /  4.5km/h 13mph /  20.9km/h 72.2% 0.00in /  0mm 824 W/m2
10:39 58.8 °F /  14.9 °C 49.7 °F /  9.8 °C 30.20in /  1022.6hPa ENE 4.9mph /  7.9km/h 13mph /  20.9km/h 71.8% 0.00in /  0mm 759 W/m2
10:44 59 °F /  15 °C 49.6 °F /  9.8 °C 30.20in /  1022.6hPa NNE 7.3mph /  11.7km/h 12mph /  19.3km/h 71% 0.00in /  0mm 533 W/m2
10:49 58.5 °F /  14.7 °C 49.1 °F /  9.5 °C 30.20in /  1022.6hPa NE 5.3mph /  8.5km/h 13mph /  20.9km/h 71% 0.00in /  0mm 589 W/m2
10:54 58.5 °F /  14.7 °C 49.1 °F /  9.5 °C 30.20in /  1022.6hPa ENE 6.2mph /  10km/h 13mph /  20.9km/h 71% 0.00in /  0mm 761 W/m2
10:59 58.3 °F /  14.6 °C 49.1 °F /  9.5 °C 30.19in /  1022.2hPa NNE 5.6mph /  9km/h 13mph /  20.9km/h 71.4% 0.00in /  0mm 756 W/m2
11:04 58.6 °F /  14.8 °C 49.6 °F /  9.8 °C 30.19in /  1022.2hPa ENE 4.9mph /  7.9km/h 10mph /  16.1km/h 72% 0.00in /  0mm 809 W/m2
11:09 59.4 °F /  15.2 °C 50.1 °F /  10.1 °C 30.19in /  1022.2hPa NE 6.4mph /  10.3km/h 11mph /  17.7km/h 71.4% 0.00in /  0mm 784 W/m2
11:14 59.4 °F /  15.2 °C 50 °F /  10 °C 30.19in /  1022.2hPa ENE 5.8mph /  9.3km/h 14mph /  22.5km/h 71% 0.00in /  0mm 686 W/m2
11:19 59.9 °F /  15.5 °C 50.4 °F /  10.2 °C 30.19in /  1022.2hPa East 5.2mph /  8.4km/h 9mph /  14.5km/h 70.8% 0.00in /  0mm 761 W/m2
11:24 60.2 °F /  15.7 °C 50.3 °F /  10.2 °C 30.19in /  1022.2hPa ENE 7.1mph /  11.4km/h 12mph /  19.3km/h 70% 0.00in /  0mm 759 W/m2
11:29 60.4 °F /  15.8 °C 50.5 °F /  10.3 °C 30.19in /  1022.2hPa East 4.1mph /  6.6km/h 10mph /  16.1km/h 70% 0.00in /  0mm 759 W/m2
11:34 60.3 °F /  15.7 °C 50.2 °F /  10.1 °C 30.19in /  1022.2hPa East 7.4mph /  11.9km/h 16mph /  25.7km/h 69.6% 0.00in /  0mm 761 W/m2
11:39 60.7 °F /  15.9 °C 50.7 °F /  10.4 °C 30.19in /  1022.2hPa ENE 5.1mph /  8.2km/h 11mph /  17.7km/h 69.6% 0.00in /  0mm 766 W/m2
11:44 61.1 °F /  16.2 °C 50.8 °F /  10.4 °C 30.19in /  1022.2hPa ESE 5.1mph /  8.2km/h 10mph /  16.1km/h 69% 0.00in /  0mm 770 W/m2
11:49 61.3 °F /  16.3 °C 51.1 °F /  10.6 °C 30.19in /  1022.2hPa ESE 6mph /  9.7km/h 13mph /  20.9km/h 69% 0.00in /  0mm 784 W/m2
11:54 62.1 °F /  16.7 °C 51.4 °F /  10.8 °C 30.18in /  1021.9hPa NE 4.9mph /  7.9km/h 11mph /  17.7km/h 68% 0.00in /  0mm 788 W/m2
11:59 62.2 °F /  16.8 °C 51.5 °F /  10.8 °C 30.18in /  1021.9hPa ENE 5.9mph /  9.5km/h 13mph /  20.9km/h 67.8% 0.00in /  0mm 795 W/m2
12:04 62.7 °F /  17.1 °C 51.7 °F /  10.9 °C 30.18in /  1021.9hPa ENE 3.5mph /  5.6km/h 8mph /  12.9km/h 67.2% 0.00in /  0mm 795 W/m2
12:09 63.5 °F /  17.5 °C 52.1 °F /  11.2 °C 30.18in /  1021.9hPa East 6.2mph /  10km/h 13mph /  20.9km/h 66.4% 0.00in /  0mm 795 W/m2
12:14 63.9 °F /  17.7 °C 52.2 °F /  11.2 °C 30.18in /  1021.9hPa East 4.2mph /  6.8km/h 16mph /  25.7km/h 66% 0.00in /  0mm 796 W/m2
12:19 63.1 °F /  17.3 °C 53.1 °F /  11.7 °C 30.18in /  1021.9hPa East 3.7mph /  6km/h 15mph /  24.1km/h 69.8% 0.00in /  0mm 807 W/m2
12:24 63.2 °F /  17.3 °C 53.6 °F /  12 °C 30.18in /  1021.9hPa North 5.6mph /  9km/h 12mph /  19.3km/h 70.6% 0.00in /  0mm 824 W/m2
12:29 63.1 °F /  17.3 °C 53.5 °F /  11.9 °C 30.18in /  1021.9hPa NNE 5.9mph /  9.5km/h 13mph /  20.9km/h 70.8% 0.00in /  0mm 810 W/m2
12:34 63.6 °F /  17.6 °C 53.8 °F /  12.1 °C 30.18in /  1021.9hPa NE 7.2mph /  11.6km/h 14mph /  22.5km/h 70.4% 0.00in /  0mm 819 W/m2
12:39 63.9 °F /  17.7 °C 54 °F /  12.2 °C 30.17in /  1021.6hPa NE 7.6mph /  12.2km/h 11mph /  17.7km/h 70% 0.00in /  0mm 817 W/m2
12:44 64.2 °F /  17.9 °C 54.1 °F /  12.3 °C 30.17in /  1021.6hPa NNE 3.2mph /  5.1km/h 10mph /  16.1km/h 69.6% 0.00in /  0mm 823 W/m2
12:49 64.8 °F /  18.2 °C 54.6 °F /  12.6 °C 30.17in /  1021.6hPa NE 2.1mph /  3.4km/h 11mph /  17.7km/h 69.8% 0.00in /  0mm 830 W/m2
12:54 65.6 °F /  18.7 °C 55 °F /  12.8 °C 30.17in /  1021.6hPa NE 6.7mph /  10.8km/h 11mph /  17.7km/h 68.6% 0.00in /  0mm 830 W/m2
12:59 66.2 °F /  19 °C 54.9 °F /  12.7 °C 30.17in /  1021.6hPa ENE 3.3mph /  5.3km/h 9mph /  14.5km/h 67% 0.00in /  0mm 831 W/m2
13:04 65.4 °F /  18.6 °C 54.4 °F /  12.4 °C 30.17in /  1021.6hPa ESE 4mph /  6.4km/h 12mph /  19.3km/h 67.6% 0.00in /  0mm 831 W/m2
13:09 65.3 °F /  18.5 °C 54.5 °F /  12.5 °C 30.17in /  1021.6hPa East 5.4mph /  8.7km/h 11mph /  17.7km/h 68% 0.00in /  0mm 833 W/m2
13:14 65.3 °F /  18.5 °C 54.8 °F /  12.7 °C 30.17in /  1021.6hPa SE 4.4mph /  7.1km/h 8mph /  12.9km/h 69% 0.00in /  0mm 831 W/m2
13:19 66.1 °F /  18.9 °C 55.4 °F /  13 °C 30.17in /  1021.6hPa ENE 3.7mph /  6km/h 10mph /  16.1km/h 68.4% 0.00in /  0mm 831 W/m2
13:24 66.6 °F /  19.2 °C 55.2 °F /  12.9 °C 30.16in /  1021.2hPa East 3.9mph /  6.3km/h 12mph /  19.3km/h 67% 0.00in /  0mm 828 W/m2
13:29 67 °F /  19.4 °C 55.7 °F /  13.2 °C 30.16in /  1021.2hPa East 3.6mph /  5.8km/h 10mph /  16.1km/h 67% 0.00in /  0mm 833 W/m2
13:34 67.4 °F /  19.7 °C 55.7 °F /  13.2 °C 30.16in /  1021.2hPa ENE 5.9mph /  9.5km/h 14mph /  22.5km/h 66% 0.00in /  0mm 833 W/m2
13:39 67.9 °F /  19.9 °C 55.8 °F /  13.2 °C 30.16in /  1021.2hPa ESE 6.5mph /  10.5km/h 12mph /  19.3km/h 65.3% 0.00in /  0mm 835 W/m2
13:44 68 °F /  20 °C 55.6 °F /  13.1 °C 30.16in /  1021.2hPa East 7mph /  11.3km/h 15mph /  24.1km/h 64.6% 0.00in /  0mm 830 W/m2
13:49 67.4 °F /  19.7 °C 55.3 °F /  12.9 °C 30.16in /  1021.2hPa ESE 5.4mph /  8.7km/h 15mph /  24.1km/h 65.2% 0.00in /  0mm 828 W/m2
13:54 67.1 °F /  19.5 °C 55.4 °F /  13 °C 30.16in /  1021.2hPa East 6.6mph /  10.6km/h 14mph /  22.5km/h 66% 0.00in /  0mm 821 W/m2
13:59 66.9 °F /  19.4 °C 55.4 °F /  13 °C 30.16in /  1021.2hPa ESE 4.1mph /  6.6km/h 14mph /  22.5km/h 66.4% 0.00in /  0mm 826 W/m2
14:04 67.3 °F /  19.6 °C 56 °F /  13.3 °C 30.16in /  1021.2hPa East 4.1mph /  6.6km/h 13mph /  20.9km/h 67% 0.00in /  0mm 824 W/m2
14:09 67.7 °F /  19.8 °C 56 °F /  13.3 °C 30.16in /  1021.2hPa East 7.8mph /  12.6km/h 15mph /  24.1km/h 66% 0.00in /  0mm 819 W/m2
14:14 67.7 °F /  19.8 °C 55.8 °F /  13.2 °C 30.15in /  1020.9hPa East 4.6mph /  7.4km/h 12mph /  19.3km/h 65.6% 0.00in /  0mm 821 W/m2
14:19 68 °F /  20 °C 56.2 °F /  13.4 °C 30.15in /  1020.9hPa East 6.3mph /  10.1km/h 17mph /  27.4km/h 66% 0.00in /  0mm 819 W/m2
14:24 68.3 °F /  20.2 °C 56.2 °F /  13.4 °C 30.15in /  1020.9hPa East 4.7mph /  7.6km/h 14mph /  22.5km/h 65.4% 0.00in /  0mm 810 W/m2
14:29 68.3 °F /  20.2 °C 56.2 °F /  13.4 °C 30.15in /  1020.9hPa ENE 4.6mph /  7.4km/h 11mph /  17.7km/h 65.4% 0.00in /  0mm 807 W/m2
14:34 68.6 °F /  20.3 °C 56.3 °F /  13.5 °C 30.15in /  1020.9hPa NNE 7.6mph /  12.2km/h 13mph /  20.9km/h 65% 0.00in /  0mm 803 W/m2
14:39 68.8 °F /  20.4 °C 56.6 °F /  13.7 °C 30.15in /  1020.9hPa ENE 4mph /  6.4km/h 13mph /  20.9km/h 65% 0.00in /  0mm 798 W/m2
14:44 68.9 °F /  20.5 °C 56.6 °F /  13.7 °C 30.15in /  1020.9hPa East 4.5mph /  7.2km/h 9mph /  14.5km/h 64.6% 0.00in /  0mm 796 W/m2
14:49 69.1 °F /  20.6 °C 56.9 °F /  13.8 °C 30.14in /  1020.5hPa ESE 6.4mph /  10.3km/h 14mph /  22.5km/h 65.2% 0.00in /  0mm 791 W/m2
14:54 69.5 °F /  20.8 °C 57.1 °F /  13.9 °C 30.14in /  1020.5hPa ENE 7mph /  11.3km/h 14mph /  22.5km/h 64.6% 0.00in /  0mm 784 W/m2
14:59 70 °F /  21.1 °C 57.1 °F /  13.9 °C 30.14in /  1020.5hPa ENE 3.7mph /  6km/h 12mph /  19.3km/h 63.8% 0.00in /  0mm 773 W/m2
15:04 70.2 °F /  21.2 °C 57 °F /  13.9 °C 30.14in /  1020.5hPa ESE 6.2mph /  10km/h 10mph /  16.1km/h 63% 0.00in /  0mm 770 W/m2
15:09 70 °F /  21.1 °C 57.1 °F /  13.9 °C 30.14in /  1020.5hPa ENE 6.8mph /  10.9km/h 11mph /  17.7km/h 63.6% 0.00in /  0mm 765 W/m2
15:14 70.1 °F /  21.2 °C 56.9 °F /  13.8 °C 30.14in /  1020.5hPa East 5.8mph /  9.3km/h 14mph /  22.5km/h 62.8% 0.00in /  0mm 759 W/m2
15:19 69.6 °F /  20.9 °C 57 °F /  13.9 °C 30.14in /  1020.5hPa ENE 6.8mph /  10.9km/h 13mph /  20.9km/h 64.2% 0.00in /  0mm 752 W/m2
15:24 70.4 °F /  21.3 °C 57.2 °F /  14 °C 30.14in /  1020.5hPa ENE 6mph /  9.7km/h 15mph /  24.1km/h 63% 0.00in /  0mm 747 W/m2
15:29 70.7 °F /  21.5 °C 57.4 °F /  14.1 °C 30.14in /  1020.5hPa ESE 4.1mph /  6.6km/h 10mph /  16.1km/h 62.8% 0.00in /  0mm 745 W/m2
15:34 71 °F /  21.7 °C 57.6 °F /  14.2 °C 30.14in /  1020.5hPa NE 6.6mph /  10.6km/h 13mph /  20.9km/h 62.6% 0.00in /  0mm 737 W/m2
15:39 71.2 °F /  21.8 °C 57.6 °F /  14.2 °C 30.14in /  1020.5hPa NE 4.7mph /  7.6km/h 10mph /  16.1km/h 62.4% 0.00in /  0mm 726 W/m2
15:44 71.8 °F /  22.1 °C 58.1 °F /  14.5 °C 30.13in /  1020.2hPa East 4.5mph /  7.2km/h 9mph /  14.5km/h 62.2% 0.00in /  0mm 714 W/m2
15:49 72 °F /  22.2 °C 57.9 °F /  14.4 °C 30.13in /  1020.2hPa ESE 7.2mph /  11.6km/h 17mph /  27.4km/h 61.2% 0.00in /  0mm 705 W/m2
15:54 71.9 °F /  22.2 °C 57.8 °F /  14.3 °C 30.13in /  1020.2hPa NE 4.1mph /  6.6km/h 13mph /  20.9km/h 61.2% 0.00in /  0mm 696 W/m2
15:59 72.1 °F /  22.3 °C 57.9 °F /  14.4 °C 30.13in /  1020.2hPa NNE 6mph /  9.7km/h 13mph /  20.9km/h 61% 0.00in /  0mm 689 W/m2
16:04 72.7 °F /  22.6 °C 58.4 °F /  14.7 °C 30.13in /  1020.2hPa ENE 4.1mph /  6.6km/h 11mph /  17.7km/h 61% 0.00in /  0mm 684 W/m2
16:09 73.2 °F /  22.9 °C 58.6 °F /  14.8 °C 30.13in /  1020.2hPa East 7.8mph /  12.6km/h 15mph /  24.1km/h 60.2% 0.00in /  0mm 671 W/m2
16:14 72.8 °F /  22.7 °C 58 °F /  14.4 °C 30.13in /  1020.2hPa ENE 5.8mph /  9.3km/h 14mph /  22.5km/h 60% 0.00in /  0mm 663 W/m2
16:19 72.7 °F /  22.6 °C 57.9 °F /  14.4 °C 30.12in /  1019.9hPa NE 4.2mph /  6.8km/h 13mph /  20.9km/h 60% 0.00in /  0mm 659 W/m2
16:24 72.8 °F /  22.7 °C 58.1 °F /  14.5 °C 30.12in /  1019.9hPa NE 4.2mph /  6.8km/h 13mph /  20.9km/h 60.3% 0.00in /  0mm 647 W/m2
16:29 73 °F /  22.8 °C 58.4 °F /  14.7 °C 30.12in /  1019.9hPa ENE 4.2mph /  6.8km/h 12mph /  19.3km/h 60.2% 0.00in /  0mm 642 W/m2
16:34 72.9 °F /  22.7 °C 58.2 °F /  14.6 °C 30.12in /  1019.9hPa NE 6.2mph /  10km/h 13mph /  20.9km/h 60% 0.00in /  0mm 628 W/m2
16:39 73.3 °F /  22.9 °C 58.7 °F /  14.8 °C 30.12in /  1019.9hPa East 4.5mph /  7.2km/h 11mph /  17.7km/h 60.4% 0.00in /  0mm 621 W/m2
16:44 73.6 °F /  23.1 °C 58.4 °F /  14.7 °C 30.12in /  1019.9hPa NNE 4.1mph /  6.6km/h 11mph /  17.7km/h 59.2% 0.00in /  0mm 606 W/m2
16:49 73.1 °F /  22.8 °C 58.3 °F /  14.6 °C 30.12in /  1019.9hPa ENE 4mph /  6.4km/h 11mph /  17.7km/h 59.8% 0.00in /  0mm 596 W/m2
16:54 73.4 °F /  23 °C 58.7 °F /  14.8 °C 30.12in /  1019.9hPa ENE 4.7mph /  7.6km/h 9mph /  14.5km/h 60% 0.00in /  0mm 585 W/m2
16:59 73.8 °F /  23.2 °C 58.8 °F /  14.9 °C 30.11in /  1019.5hPa ENE 4.1mph /  6.6km/h 9mph /  14.5km/h 59.6% 0.00in /  0mm 578 W/m2
17:04 73.8 °F /  23.2 °C 58.5 °F /  14.7 °C 30.11in /  1019.5hPa NE 3.7mph /  6km/h 10mph /  16.1km/h 59% 0.00in /  0mm 561 W/m2
17:09 73.4 °F /  23 °C 58.4 °F /  14.7 °C 30.12in /  1019.9hPa East 3.7mph /  6km/h 10mph /  16.1km/h 59.4% 0.00in /  0mm 548 W/m2
17:14 73.2 °F /  22.9 °C 58.5 °F /  14.7 °C 30.11in /  1019.5hPa NE 7.6mph /  12.2km/h 14mph /  22.5km/h 60% 0.00in /  0mm 540 W/m2
17:19 73.2 °F /  22.9 °C 58.5 °F /  14.7 °C 30.11in /  1019.5hPa NE 6mph /  9.7km/h 11mph /  17.7km/h 60% 0.00in /  0mm 527 W/m2
17:24 73.4 °F /  23 °C 58.6 °F /  14.8 °C 30.11in /  1019.5hPa NNE 5mph /  8km/h 11mph /  17.7km/h 60% 0.00in /  0mm 512 W/m2
17:29 73.2 °F /  22.9 °C 58.5 °F /  14.7 °C 30.11in /  1019.5hPa NE 6.4mph /  10.3km/h 13mph /  20.9km/h 60% 0.00in /  0mm 504 W/m2
17:34 73.4 °F /  23 °C 58.7 °F /  14.8 °C 30.11in /  1019.5hPa NE 5.6mph /  9km/h 11mph /  17.7km/h 60% 0.00in /  0mm 490 W/m2
17:39 73.5 °F /  23.1 °C 58.7 °F /  14.8 °C 30.11in /  1019.5hPa NNE 4.6mph /  7.4km/h 12mph /  19.3km/h 60% 0.00in /  0mm 483 W/m2
17:44 73.5 °F /  23.1 °C 58.7 °F /  14.8 °C 30.11in /  1019.5hPa ENE 4mph /  6.4km/h 10mph /  16.1km/h 60% 0.00in /  0mm 469 W/m2
17:49 73.7 °F /  23.2 °C 59 °F /  15 °C 30.11in /  1019.5hPa NNE 3.6mph /  5.8km/h 10mph /  16.1km/h 60.2% 0.00in /  0mm 455 W/m2
17:54 73.5 °F /  23.1 °C 58.9 °F /  14.9 °C 30.11in /  1019.5hPa NE 5.4mph /  8.7km/h 12mph /  19.3km/h 60.4% 0.00in /  0mm 443 W/m2
17:59 73.2 °F /  22.9 °C 58.6 °F /  14.8 °C 30.11in /  1019.5hPa NE 5.5mph /  8.9km/h 12mph /  19.3km/h 60.4% 0.00in /  0mm 429 W/m2
18:04 73.3 °F /  22.9 °C 59.1 °F /  15.1 °C 30.11in /  1019.5hPa NE 4mph /  6.4km/h 9mph /  14.5km/h 61% 0.00in /  0mm 417 W/m2
18:09 73.8 °F /  23.2 °C 59.1 °F /  15.1 °C 30.11in /  1019.5hPa ENE 5.1mph /  8.2km/h 11mph /  17.7km/h 60.2% 0.00in /  0mm 406 W/m2
18:14 73.7 °F /  23.2 °C 58.7 °F /  14.8 °C 30.11in /  1019.5hPa NE 5.4mph /  8.7km/h 14mph /  22.5km/h 59.4% 0.00in /  0mm 392 W/m2
18:19 73.3 °F /  22.9 °C 58.6 °F /  14.8 °C 30.11in /  1019.5hPa NE 4.4mph /  7.1km/h 14mph /  22.5km/h 60% 0.00in /  0mm 380 W/m2
18:24 73.8 °F /  23.2 °C 58.7 °F /  14.8 °C 30.11in /  1019.5hPa East 7.2mph /  11.6km/h 14mph /  22.5km/h 59.4% 0.00in /  0mm 367 W/m2
18:29 73.2 °F /  22.9 °C 57.8 °F /  14.3 °C 30.11in /  1019.5hPa East 4.5mph /  7.2km/h 13mph /  20.9km/h 58.6% 0.00in /  0mm 357 W/m2
18:34 72.5 °F /  22.5 °C 57.5 °F /  14.2 °C 30.11in /  1019.5hPa ESE 5.4mph /  8.7km/h 12mph /  19.3km/h 59.2% 0.00in /  0mm 343 W/m2
18:39 72.3 °F /  22.4 °C 57.7 °F /  14.3 °C 30.11in /  1019.5hPa East 3.7mph /  6km/h 11mph /  17.7km/h 60% 0.00in /  0mm 329 W/m2
18:44 72.4 °F /  22.4 °C 57.7 °F /  14.3 °C 30.11in /  1019.5hPa East 3.6mph /  5.8km/h 11mph /  17.7km/h 60% 0.00in /  0mm 313 W/m2
18:49 72.3 °F /  22.4 °C 57.7 °F /  14.3 °C 30.11in /  1019.5hPa ESE 4.5mph /  7.2km/h 14mph /  22.5km/h 60% 0.00in /  0mm 301 W/m2
18:54 72.1 °F /  22.3 °C 57.6 °F /  14.2 °C 30.11in /  1019.5hPa East 5.6mph /  9km/h 12mph /  19.3km/h 60% 0.00in /  0mm 288 W/m2
18:59 72.1 °F /  22.3 °C 57.6 °F /  14.2 °C 30.11in /  1019.5hPa East 6mph /  9.7km/h 14mph /  22.5km/h 60% 0.00in /  0mm 274 W/m2
19:04 72.1 °F /  22.3 °C 57.6 °F /  14.2 °C 30.11in /  1019.5hPa ENE 4.1mph /  6.6km/h 13mph /  20.9km/h 60% 0.00in /  0mm 260 W/m2
19:09 72.1 °F /  22.3 °C 57.6 °F /  14.2 °C 30.11in /  1019.5hPa ESE 4.3mph /  6.9km/h 10mph /  16.1km/h 60% 0.00in /  0mm 250 W/m2
19:14 72.2 °F /  22.3 °C 57.7 °F /  14.3 °C 30.11in /  1019.5hPa ENE 6.3mph /  10.1km/h 9mph /  14.5km/h 60% 0.00in /  0mm 237 W/m2
19:19 72.3 °F /  22.4 °C 57.7 °F /  14.3 °C 30.11in /  1019.5hPa East 4.3mph /  6.9km/h 11mph /  17.7km/h 60% 0.00in /  0mm 223 W/m2
19:24 72.3 °F /  22.4 °C 57.7 °F /  14.3 °C 30.11in /  1019.5hPa East 2.9mph /  4.7km/h 8mph /  12.9km/h 60% 0.00in /  0mm 209 W/m2
19:29 72 °F /  22.2 °C 57.7 °F /  14.3 °C 30.11in /  1019.5hPa East 2.7mph /  4.3km/h 10mph /  16.1km/h 61% 0.00in /  0mm 193 W/m2
19:34 71.8 °F /  22.1 °C 57.4 °F /  14.1 °C 30.11in /  1019.5hPa ENE 5.4mph /  8.7km/h 11mph /  17.7km/h 60.4% 0.00in /  0mm 179 W/m2
19:39 71.7 °F /  22.1 °C 57.4 °F /  14.1 °C 30.11in /  1019.5hPa NE 3.6mph /  5.8km/h 11mph /  17.7km/h 60.8% 0.00in /  0mm 165 W/m2
19:44 71.4 °F /  21.9 °C 57.2 °F /  14 °C 30.11in /  1019.5hPa NE 6mph /  9.7km/h 11mph /  17.7km/h 61% 0.00in /  0mm 149 W/m2
19:49 71.3 °F /  21.8 °C 57.3 °F /  14.1 °C 30.11in /  1019.5hPa NE 4.1mph /  6.6km/h 10mph /  16.1km/h 61.4% 0.00in /  0mm 135 W/m2
19:54 71.1 °F /  21.7 °C 57.3 °F /  14.1 °C 30.11in /  1019.5hPa East 2.7mph /  4.3km/h 9mph /  14.5km/h 61.8% 0.00in /  0mm 120 W/m2
19:59 70.9 °F /  21.6 °C 57.2 °F /  14 °C 30.11in /  1019.5hPa ENE 4.2mph /  6.8km/h 10mph /  16.1km/h 62% 0.00in /  0mm 111 W/m2
20:04 70.7 °F /  21.5 °C 57.2 °F /  14 °C 30.10in /  1019.2hPa NE 5mph /  8km/h 10mph /  16.1km/h 62.4% 0.00in /  0mm 98 W/m2
20:09 70.5 °F /  21.4 °C 57.4 °F /  14.1 °C 30.10in /  1019.2hPa NE 5.7mph /  9.2km/h 10mph /  16.1km/h 63% 0.00in /  0mm 86 W/m2
20:14 70.2 °F /  21.2 °C 57.2 °F /  14 °C 30.10in /  1019.2hPa ENE 4.9mph /  7.9km/h 10mph /  16.1km/h 63.2% 0.00in /  0mm 77 W/m2
20:19 70.1 °F /  21.2 °C 57.3 °F /  14.1 °C 30.10in /  1019.2hPa NNE 2mph /  3.2km/h 7mph /  11.3km/h 64% 0.00in /  0mm 67 W/m2
20:24 70 °F /  21.1 °C 57.3 °F /  14.1 °C 30.10in /  1019.2hPa ENE 3.7mph /  6km/h 9mph /  14.5km/h 64.2% 0.00in /  0mm 58 W/m2
20:29 69.7 °F /  20.9 °C 57.5 °F /  14.2 °C 30.10in /  1019.2hPa ENE 3.6mph /  5.8km/h 10mph /  16.1km/h 65% 0.00in /  0mm 49 W/m2
20:34 69.3 °F /  20.7 °C 57.2 °F /  14 °C 30.10in /  1019.2hPa NE 5.6mph /  9km/h 10mph /  16.1km/h 65.2% 0.00in /  0mm 40 W/m2
20:39 69.1 °F /  20.6 °C 57.2 °F /  14 °C 30.10in /  1019.2hPa NE 3.5mph /  5.6km/h 11mph /  17.7km/h 66% 0.00in /  0mm 35 W/m2
20:44 68.8 °F /  20.4 °C 56.9 °F /  13.8 °C 30.10in /  1019.2hPa East 5.9mph /  9.5km/h 12mph /  19.3km/h 66% 0.00in /  0mm 28 W/m2
20:49 68.5 °F /  20.3 °C 57.1 °F /  13.9 °C 30.11in /  1019.5hPa NE 2.9mph /  4.7km/h 8mph /  12.9km/h 66.8% 0.00in /  0mm 25 W/m2
20:54 68.3 °F /  20.2 °C 56.9 °F /  13.8 °C 30.11in /  1019.5hPa NE 2.7mph /  4.3km/h 8mph /  12.9km/h 67% 0.00in /  0mm 19 W/m2
20:59 68 °F /  20 °C 56.8 °F /  13.8 °C 30.11in /  1019.5hPa NE 2.5mph /  4km/h 10mph /  16.1km/h 67.6% 0.00in /  0mm 16 W/m2
21:04 67.5 °F /  19.7 °C 56.6 °F /  13.7 °C 30.11in /  1019.5hPa NE 5mph /  8km/h 10mph /  16.1km/h 68% 0.00in /  0mm 14 W/m2
21:09 66.9 °F /  19.4 °C 56.6 °F /  13.7 °C 30.11in /  1019.5hPa NE 4.6mph /  7.4km/h 11mph /  17.7km/h 69.2% 0.00in /  0mm 11 W/m2
21:14 66.4 °F /  19.1 °C 56.3 °F /  13.5 °C 30.11in /  1019.5hPa NE 3.5mph /  5.6km/h 11mph /  17.7km/h 70% 0.00in /  0mm 7 W/m2
21:19 65.9 °F /  18.8 °C 56.1 °F /  13.4 °C 30.11in /  1019.5hPa ENE 4.6mph /  7.4km/h 13mph /  20.9km/h 71% 0.00in /  0mm 5 W/m2
21:24 65.5 °F /  18.6 °C 55.9 °F /  13.3 °C 30.11in /  1019.5hPa NE 5mph /  8km/h 13mph /  20.9km/h 71.4% 0.00in /  0mm 0 W/m2
21:29 65 °F /  18.3 °C 55.9 °F /  13.3 °C 30.11in /  1019.5hPa NE 5.3mph /  8.5km/h 11mph /  17.7km/h 72% 0.00in /  0mm 0 W/m2
21:34 64.8 °F /  18.2 °C 55.6 °F /  13.1 °C 30.11in /  1019.5hPa NE 4.2mph /  6.8km/h 11mph /  17.7km/h 72% 0.00in /  0mm 0 W/m2
21:39 64.4 °F /  18 °C 55.6 °F /  13.1 °C 30.11in /  1019.5hPa ENE 5.5mph /  8.9km/h 9mph /  14.5km/h 73% 0.00in /  0mm 0 W/m2
21:44 64.1 °F /  17.8 °C 55.2 °F /  12.9 °C 30.11in /  1019.5hPa NE 7mph /  11.3km/h 13mph /  20.9km/h 73% 0.00in /  0mm 0 W/m2
21:49 63.8 °F /  17.7 °C 55 °F /  12.8 °C 30.11in /  1019.5hPa ENE 6.6mph /  10.6km/h 13mph /  20.9km/h 73.2% 0.00in /  0mm 0 W/m2
21:54 63.6 °F /  17.6 °C 55.1 °F /  12.8 °C 30.11in /  1019.5hPa NE 2.9mph /  4.7km/h 11mph /  17.7km/h 74% 0.00in /  0mm 0 W/m2
21:59 63.3 °F /  17.4 °C 54.9 °F /  12.7 °C 30.11in /  1019.5hPa NE 5.4mph /  8.7km/h 13mph /  20.9km/h 74% 0.00in /  0mm 0 W/m2
22:04 63.1 °F /  17.3 °C 54.7 °F /  12.6 °C 30.12in /  1019.9hPa NE 6.4mph /  10.3km/h 11mph /  17.7km/h 74% 0.00in /  0mm 0 W/m2
22:09 62.9 °F /  17.2 °C 54.4 °F /  12.4 °C 30.12in /  1019.9hPa NE 5mph /  8km/h 11mph /  17.7km/h 74% 0.00in /  0mm 0 W/m2
22:14 62.7 °F /  17.1 °C 54.3 °F /  12.4 °C 30.12in /  1019.9hPa ENE 5.2mph /  8.4km/h 10mph /  16.1km/h 74.4% 0.00in /  0mm 0 W/m2
22:19 62.3 °F /  16.8 °C 54.2 °F /  12.3 °C 30.12in /  1019.9hPa NE 4mph /  6.4km/h 13mph /  20.9km/h 75% 0.00in /  0mm 0 W/m2
22:23 62.1 °F /  16.7 °C 54 °F /  12.2 °C 30.12in /  1019.9hPa ENE 5.4mph /  8.7km/h 14mph /  22.5km/h 75% 0.00in /  0mm 0 W/m2
22:29 61.8 °F /  16.6 °C 53.9 °F /  12.2 °C 30.12in /  1019.9hPa ENE 8mph /  12.9km/h 14mph /  22.5km/h 75.2% 0.00in /  0mm 0 W/m2
22:34 61.4 °F /  16.3 °C 53.8 °F /  12.1 °C 30.12in /  1019.9hPa NE 6.2mph /  10km/h 13mph /  20.9km/h 75.8% 0.00in /  0mm 0 W/m2
22:39 61.1 °F /  16.2 °C 53.6 °F /  12 °C 30.12in /  1019.9hPa ENE 6.6mph /  10.6km/h 14mph /  22.5km/h 76% 0.00in /  0mm 0 W/m2
22:44 60.8 °F /  16 °C 53.2 °F /  11.8 °C 30.12in /  1019.9hPa ENE 6.7mph /  10.8km/h 16mph /  25.7km/h 76% 0.00in /  0mm 0 W/m2
22:49 60.5 °F /  15.8 °C 53 °F /  11.7 °C 30.12in /  1019.9hPa ENE 5.5mph /  8.9km/h 15mph /  24.1km/h 76% 0.00in /  0mm 0 W/m2
22:54 60.3 °F /  15.7 °C 53 °F /  11.7 °C 30.12in /  1019.9hPa NE 6.7mph /  10.8km/h 13mph /  20.9km/h 76.8% 0.00in /  0mm 0 W/m2
22:59 59.9 °F /  15.5 °C 52.7 °F /  11.5 °C 30.12in /  1019.9hPa NE 6.6mph /  10.6km/h 14mph /  22.5km/h 77% 0.00in /  0mm 0 W/m2
23:04 59.6 °F /  15.3 °C 52.4 °F /  11.3 °C 30.12in /  1019.9hPa ENE 5.8mph /  9.3km/h 14mph /  22.5km/h 77% 0.00in /  0mm 0 W/m2
23:09 59.4 °F /  15.2 °C 52.2 °F /  11.2 °C 30.12in /  1019.9hPa ENE 4.9mph /  7.9km/h 10mph /  16.1km/h 77% 0.00in /  0mm 0 W/m2
23:14 59.1 °F /  15.1 °C 51.9 °F /  11.1 °C 30.12in /  1019.9hPa NE 4.3mph /  6.9km/h 10mph /  16.1km/h 77% 0.00in /  0mm 0 W/m2
23:19 58.6 °F /  14.8 °C 51.4 °F /  10.8 °C 30.12in /  1019.9hPa ENE 7.4mph /  11.9km/h 15mph /  24.1km/h 77% 0.00in /  0mm 0 W/m2
23:24 58.4 °F /  14.7 °C 51.2 °F /  10.7 °C 30.12in /  1019.9hPa ENE 4mph /  6.4km/h 13mph /  20.9km/h 77% 0.00in /  0mm 0 W/m2
23:29 58.1 °F /  14.5 °C 50.9 °F /  10.5 °C 30.13in /  1020.2hPa ENE 5.4mph /  8.7km/h 10mph /  16.1km/h 77% 0.00in /  0mm 0 W/m2
23:34 57.7 °F /  14.3 °C 50.6 °F /  10.3 °C 30.13in /  1020.2hPa ENE 6.5mph /  10.5km/h 18mph /  29km/h 77.2% 0.00in /  0mm 0 W/m2
23:39 57.4 °F /  14.1 °C 50.4 °F /  10.2 °C 30.13in /  1020.2hPa ENE 7.1mph /  11.4km/h 15mph /  24.1km/h 77.6% 0.00in /  0mm 0 W/m2
23:44 57.1 °F /  13.9 °C 49.9 °F /  9.9 °C 30.13in /  1020.2hPa ENE 6.4mph /  10.3km/h 15mph /  24.1km/h 77% 0.00in /  0mm 0 W/m2
23:49 56.8 °F /  13.8 °C 49.9 °F /  9.9 °C 30.13in /  1020.2hPa East 5.4mph /  8.7km/h 15mph /  24.1km/h 77.8% 0.00in /  0mm 0 W/m2
23:54 56.6 °F /  13.7 °C 49.7 °F /  9.8 °C 30.13in /  1020.2hPa ESE 4.4mph /  7.1km/h 14mph /  22.5km/h 78% 0.00in /  0mm 0 W/m2
23:59 56.4 °F /  13.6 °C 49.5 °F /  9.7 °C 30.13in /  1020.2hPa ENE 5.2mph /  8.4km/h 14mph /  22.5km/h 78% 0.00in /  0mm 0 W/m2
Bath Spa Weather
Compliments of Weather Underground - 2 mb